createdAt,value
2023-04-12T00:04:24.940Z,1.97
2023-04-12T00:09:31.085Z,1.30
2023-04-12T00:14:36.515Z,2.40
2023-04-12T00:19:45.195Z,1.87
2023-04-12T00:24:50.701Z,2.17
2023-04-12T00:29:56.586Z,3.63
2023-04-12T00:35:02.124Z,2.40
2023-04-12T00:40:10.189Z,2.03
2023-04-12T00:45:16.452Z,4.23
2023-04-12T00:50:23.505Z,3.17
2023-04-12T00:55:29.043Z,3.30
2023-04-12T01:00:35.775Z,4.73
2023-04-12T01:05:44.315Z,2.70
2023-04-12T01:10:59.109Z,2.30
2023-04-12T01:16:17.322Z,2.37
2023-04-12T01:21:43.774Z,5.43
2023-04-12T01:26:53.237Z,1.90
2023-04-12T01:32:04.951Z,3.10
2023-04-12T01:37:11.531Z,2.53
2023-04-12T01:42:21.886Z,2.53
2023-04-12T01:47:28.129Z,2.80
2023-04-12T01:52:36.729Z,2.73
2023-04-12T01:57:45.048Z,3.67
2023-04-12T02:02:51.464Z,3.67
2023-04-12T02:07:58.308Z,3.87
2023-04-12T02:13:04.597Z,2.90
2023-04-12T02:18:10.085Z,8.63
2023-04-12T02:23:16.373Z,5.73
2023-04-12T02:28:23.344Z,5.03
2023-04-12T02:33:29.744Z,5.97
2023-04-12T02:38:36.576Z,4.60
2023-04-12T02:43:43.272Z,4.20
2023-04-12T02:48:49.588Z,5.43
2023-04-12T02:53:56.318Z,3.43
2023-04-12T02:59:03.635Z,5.33
2023-04-12T03:04:17.146Z,4.27
2023-04-12T03:09:25.183Z,4.37
2023-04-12T03:14:32.329Z,3.50
2023-04-12T03:19:38.493Z,3.20
2023-04-12T03:24:46.164Z,4.97
2023-04-12T03:29:53.261Z,2.20
2023-04-12T03:35:00.934Z,4.53
2023-04-12T03:40:08.172Z,4.27
2023-04-12T03:45:14.064Z,4.50
2023-04-12T03:50:22.291Z,5.17
2023-04-12T03:55:29.480Z,5.23
2023-04-12T04:00:36.025Z,5.97
2023-04-12T04:05:46.299Z,5.03
2023-04-12T04:10:52.984Z,5.07
2023-04-12T04:16:10.023Z,3.93
2023-04-12T04:21:17.106Z,7.03
2023-04-12T04:26:24.534Z,5.20
2023-04-12T04:31:37.700Z,4.07
2023-04-12T04:36:45.071Z,4.63
2023-04-12T04:41:53.837Z,6.03
2023-04-12T04:47:10.100Z,6.53
2023-04-12T04:52:18.110Z,6.57
2023-04-12T04:57:26.831Z,3.83
2023-04-12T05:02:37.069Z,4.90
2023-04-12T05:07:44.605Z,5.47
2023-04-12T05:12:50.235Z,7.03
2023-04-12T05:17:57.966Z,4.73
2023-04-12T05:23:03.646Z,7.03
2023-04-12T05:28:11.075Z,6.50
2023-04-12T05:33:16.869Z,5.17
2023-04-12T05:38:24.191Z,4.60
2023-04-12T05:43:31.526Z,3.20
2023-04-12T05:48:37.197Z,5.43
2023-04-12T05:53:42.794Z,5.80
2023-04-12T05:58:49.500Z,5.37
2023-04-12T06:03:55.810Z,4.03
2023-04-12T06:09:02.697Z,5.00
2023-04-12T06:14:11.205Z,3.67
2023-04-12T06:19:16.089Z,6.27
2023-04-12T06:24:21.628Z,4.80
2023-04-12T06:29:27.224Z,5.17
2023-04-12T06:34:34.521Z,6.40
2023-04-12T06:39:42.891Z,6.60
2023-04-12T06:44:48.340Z,5.60
2023-04-12T06:49:56.303Z,6.60
2023-04-12T06:55:01.959Z,5.97
2023-04-12T07:00:08.985Z,7.97
2023-04-12T07:05:15.940Z,7.03
2023-04-12T07:10:21.358Z,4.13
2023-04-12T07:15:26.954Z,5.23
2023-04-12T07:20:32.472Z,4.13
2023-04-12T07:25:40.766Z,3.70
2023-04-12T07:30:46.433Z,4.73
2023-04-12T07:35:51.909Z,5.93
2023-04-12T07:40:57.829Z,2.63
2023-04-12T07:46:08.244Z,4.53
2023-04-12T07:51:14.283Z,3.60
2023-04-12T07:56:19.782Z,3.10
2023-04-12T08:01:25.224Z,3.30
2023-04-12T08:06:33.025Z,8.57
2023-04-12T08:11:38.765Z,4.23
2023-04-12T08:16:44.268Z,5.73
2023-04-12T08:21:49.832Z,5.60
2023-04-12T08:26:56.260Z,4.73
2023-04-12T08:32:05.321Z,4.53
2023-04-12T08:37:10.809Z,3.43
2023-04-12T08:42:17.621Z,3.27
2023-04-12T08:47:24.407Z,2.60
2023-04-12T08:52:30.526Z,3.03
2023-04-12T08:57:41.488Z,3.27
2023-04-12T09:02:49.156Z,3.40
2023-04-12T09:07:54.905Z,2.97
2023-04-12T09:13:01.444Z,3.57
2023-04-12T09:18:16.620Z,4.73
2023-04-12T09:23:24.996Z,1.63
2023-04-12T09:28:31.561Z,4.23
2023-04-12T09:33:39.550Z,4.67
2023-04-12T09:38:48.089Z,2.93
2023-04-12T09:43:53.615Z,3.10
2023-04-12T09:49:00.347Z,4.20
2023-04-12T09:54:09.174Z,2.80
2023-04-12T09:59:16.716Z,3.63
2023-04-12T10:04:22.919Z,4.47
2023-04-12T10:09:28.960Z,3.27
2023-04-12T10:14:34.616Z,2.77
2023-04-12T10:19:42.038Z,3.37
2023-04-12T10:24:47.717Z,2.30
2023-04-12T10:29:53.485Z,3.57
2023-04-12T10:35:00.962Z,3.63
2023-04-12T10:40:07.634Z,2.03
2023-04-12T10:45:35.490Z,4.20
2023-04-12T10:50:41.236Z,2.07
2023-04-12T10:55:47.391Z,3.03
2023-04-12T11:01:04.697Z,2.67
2023-04-12T11:06:24.074Z,2.10
2023-04-12T11:11:40.029Z,3.23
2023-04-12T11:17:09.591Z,2.53
2023-04-12T11:22:17.076Z,1.43
2023-04-12T11:27:23.733Z,1.77
2023-04-12T11:32:31.579Z,1.90
2023-04-12T11:37:37.304Z,2.03
2023-04-12T11:42:43.339Z,2.37
2023-04-12T11:47:48.932Z,4.93
2023-04-12T11:52:54.946Z,2.43
2023-04-12T11:58:01.612Z,1.77
2023-04-12T12:03:08.685Z,2.33
2023-04-12T12:08:15.147Z,2.67
2023-04-12T12:13:20.840Z,1.87
2023-04-12T12:18:29.486Z,1.30
2023-04-12T12:23:35.770Z,3.60
2023-04-12T12:28:41.721Z,1.67
2023-04-12T12:33:47.637Z,2.03
2023-04-12T12:38:55.073Z,2.30
2023-04-12T12:44:01.812Z,2.90
2023-04-12T12:49:07.351Z,1.80
2023-04-12T12:54:12.852Z,3.63
2023-04-12T12:59:18.301Z,2.27
2023-04-12T13:04:23.990Z,1.30
2023-04-12T13:09:29.664Z,3.00
2023-04-12T13:14:35.791Z,1.77
2023-04-12T13:19:41.290Z,1.10
2023-04-12T13:24:47.028Z,1.73
2023-04-12T13:29:52.611Z,2.50
2023-04-12T13:34:58.062Z,1.80
2023-04-12T13:40:04.815Z,1.80
2023-04-12T13:45:11.526Z,1.00
2023-04-12T13:50:17.012Z,1.07
2023-04-12T13:55:22.740Z,0.70
2023-04-12T14:00:28.326Z,1.37
2023-04-12T14:05:33.758Z,1.07
2023-04-12T14:10:39.200Z,1.70
2023-04-12T14:15:44.708Z,3.20
2023-04-12T14:20:52.754Z,1.17
2023-04-12T14:25:58.262Z,2.63
2023-04-12T14:31:06.169Z,1.50
2023-04-12T14:36:11.300Z,2.57
2023-04-12T14:41:17.319Z,1.43
2023-04-12T14:46:23.858Z,1.17
2023-04-12T14:51:30.395Z,1.73
2023-04-12T14:56:43.860Z,1.23
2023-04-12T15:01:44.266Z,2.03
2023-04-12T15:06:49.830Z,1.43
2023-04-12T15:11:57.057Z,1.83
2023-04-12T15:17:02.730Z,1.43
2023-04-12T15:22:08.224Z,1.77
2023-04-12T15:27:13.945Z,1.30
2023-04-12T15:32:19.533Z,2.17
2023-04-12T15:37:25.805Z,1.93
2023-04-12T15:42:31.332Z,1.57
2023-04-12T15:47:37.537Z,3.13
2023-04-12T15:52:44.355Z,1.60
2023-04-12T15:57:50.024Z,1.20
2023-04-12T16:02:57.963Z,1.57
2023-04-12T16:08:04.234Z,2.23
2023-04-12T16:13:11.260Z,1.60
2023-04-12T16:18:18.129Z,1.93
2023-04-12T16:23:23.788Z,2.13
2023-04-12T16:28:29.758Z,1.80
2023-04-12T16:33:35.259Z,2.20
2023-04-12T16:38:41.272Z,1.20
2023-04-12T16:43:47.038Z,1.97
2023-04-12T16:48:52.479Z,1.33
2023-04-12T16:53:59.402Z,2.27
2023-04-12T16:59:05.213Z,2.77
2023-04-12T17:04:11.966Z,1.70
2023-04-12T17:09:17.981Z,1.90
2023-04-12T17:14:23.508Z,3.67
2023-04-12T17:19:28.954Z,1.83
2023-04-12T17:24:34.469Z,1.73
2023-04-12T17:29:41.463Z,3.17
2023-04-12T17:34:47.110Z,1.73
2023-04-12T17:39:53.595Z,1.57
2023-04-12T17:44:59.173Z,1.63
2023-04-12T17:50:05.412Z,1.60
2023-04-12T17:55:12.954Z,1.30
2023-04-12T18:00:19.417Z,1.43
2023-04-12T18:05:24.271Z,2.80
2023-04-12T18:10:30.418Z,2.80
2023-04-12T18:15:36.431Z,3.33
2023-04-12T18:20:42.260Z,2.20
2023-04-12T18:25:47.971Z,3.70
2023-04-12T18:30:55.497Z,2.47
2023-04-12T18:36:00.673Z,3.17
2023-04-12T18:41:06.316Z,2.93
2023-04-12T18:46:18.940Z,3.37
2023-04-12T18:51:24.831Z,1.50
2023-04-12T18:56:30.629Z,1.67
2023-04-12T19:01:37.051Z,3.07
2023-04-12T19:06:44.331Z,3.00
2023-04-12T19:11:49.932Z,2.10
2023-04-12T19:16:55.375Z,2.17
2023-04-12T19:22:00.992Z,2.97
2023-04-12T19:27:06.715Z,3.13
2023-04-12T19:32:12.678Z,6.07
2023-04-12T19:37:18.640Z,2.93
2023-04-12T19:42:24.093Z,5.07
2023-04-12T19:47:29.647Z,2.70
2023-04-12T19:52:35.430Z,4.60
2023-04-12T19:57:41.764Z,3.17
2023-04-12T20:02:49.269Z,3.10
2023-04-12T20:07:56.292Z,3.13
2023-04-12T20:13:02.007Z,2.93
2023-04-12T20:18:08.736Z,2.83
2023-04-12T20:23:14.955Z,5.10
2023-04-12T20:28:21.366Z,3.97
2023-04-12T20:33:27.524Z,4.10
2023-04-12T20:38:33.310Z,3.20
2023-04-12T20:43:46.657Z,2.90
2023-04-12T20:48:55.180Z,4.47
2023-04-12T20:54:02.580Z,3.30
2023-04-12T20:59:08.105Z,4.77
2023-04-12T21:04:16.010Z,3.27
2023-04-12T21:09:23.530Z,3.93
2023-04-12T21:14:29.607Z,3.87
2023-04-12T21:19:39.907Z,3.27
2023-04-12T21:24:45.498Z,6.17
2023-04-12T21:29:51.028Z,3.57
2023-04-12T21:34:58.150Z,5.97
2023-04-12T21:40:12.277Z,4.63
2023-04-12T21:45:17.991Z,4.20
2023-04-12T21:50:23.563Z,3.83
2023-04-12T21:55:29.177Z,4.73
2023-04-12T22:00:35.121Z,5.03
2023-04-12T22:05:40.611Z,4.80
2023-04-12T22:10:47.728Z,4.00
2023-04-12T22:15:53.315Z,4.63
2023-04-12T22:20:59.644Z,3.70
2023-04-12T22:26:07.118Z,3.90
2023-04-12T22:31:18.970Z,4.77
2023-04-12T22:36:29.778Z,5.37
2023-04-12T22:41:38.012Z,5.07
2023-04-12T22:46:45.313Z,5.10
2023-04-12T22:51:51.182Z,4.27
2023-04-12T22:56:56.634Z,3.87
2023-04-12T23:02:02.708Z,8.00
2023-04-12T23:07:08.510Z,4.33
2023-04-12T23:12:14.525Z,6.00
2023-04-12T23:17:19.962Z,5.67
2023-04-12T23:22:52.537Z,5.23
2023-04-12T23:27:43.788Z,7.13
2023-04-12T23:32:49.375Z,4.37
2023-04-12T23:37:56.175Z,4.67
2023-04-12T23:43:02.519Z,5.70
2023-04-12T23:48:08.107Z,7.07
2023-04-12T23:53:14.277Z,4.87
2023-04-12T23:58:20.817Z,4.60
